createdAt,value
2023-04-16T00:01:06.341Z,87.19
2023-04-16T00:03:35.540Z,87.30
2023-04-16T00:06:04.872Z,87.33
2023-04-16T00:08:34.972Z,87.39
2023-04-16T00:11:03.324Z,87.36
2023-04-16T00:13:31.816Z,87.55
2023-04-16T00:16:00.229Z,87.66
2023-04-16T00:18:28.541Z,87.69
2023-04-16T00:20:57.197Z,87.70
2023-04-16T00:23:25.862Z,87.74
2023-04-16T00:25:59.255Z,88.05
2023-04-16T00:28:28.239Z,88.06
2023-04-16T00:30:56.766Z,88.68
2023-04-16T00:33:25.265Z,88.22
2023-04-16T00:35:54.323Z,88.20
2023-04-16T00:38:22.561Z,88.00
2023-04-16T00:40:51.018Z,88.36
2023-04-16T00:43:24.268Z,88.76
2023-04-16T00:45:56.664Z,88.47
2023-04-16T00:48:27.268Z,88.71
2023-04-16T00:50:55.843Z,88.72
2023-04-16T00:53:24.152Z,88.53
2023-04-16T00:55:52.621Z,88.57
2023-04-16T00:58:21.280Z,88.71
2023-04-16T01:00:50.296Z,88.68
2023-04-16T01:03:19.307Z,88.80
2023-04-16T01:05:50.091Z,89.29
2023-04-16T01:08:19.834Z,89.96
2023-04-16T01:10:48.449Z,90.01
2023-04-16T01:13:16.759Z,89.66
2023-04-16T01:15:45.143Z,89.32
2023-04-16T01:18:17.151Z,89.53
2023-04-16T01:20:45.797Z,90.13
2023-04-16T01:23:14.247Z,90.00
2023-04-16T01:25:42.494Z,89.56
2023-04-16T01:28:10.977Z,89.49
2023-04-16T01:30:39.358Z,89.53
2023-04-16T01:33:08.330Z,89.76
2023-04-16T01:35:37.144Z,89.92
2023-04-16T01:38:07.143Z,90.04
2023-04-16T01:40:35.943Z,90.33
2023-04-16T01:43:04.571Z,90.27
2023-04-16T01:45:33.301Z,90.44
2023-04-16T01:48:01.844Z,90.17
2023-04-16T01:50:30.955Z,89.84
2023-04-16T01:53:01.317Z,89.64
2023-04-16T01:55:29.733Z,89.68
2023-04-16T01:57:58.327Z,89.62
2023-04-16T02:00:26.707Z,89.60
2023-04-16T02:02:55.915Z,89.65
2023-04-16T02:05:24.449Z,89.48
2023-04-16T02:07:52.815Z,89.50
2023-04-16T02:10:21.534Z,89.59
2023-04-16T02:12:52.692Z,89.39
2023-04-16T02:15:21.019Z,89.36
2023-04-16T02:17:54.363Z,89.66
2023-04-16T02:20:23.394Z,89.48
2023-04-16T02:22:51.773Z,89.52
2023-04-16T02:25:20.054Z,89.48
2023-04-16T02:27:48.923Z,89.45
2023-04-16T02:30:17.792Z,89.66
2023-04-16T02:32:46.266Z,89.63
2023-04-16T02:35:15.183Z,89.56
2023-04-16T02:37:43.491Z,90.12
2023-04-16T02:40:12.867Z,89.58
2023-04-16T02:42:41.399Z,89.70
2023-04-16T02:45:12.052Z,89.76
2023-04-16T02:47:40.491Z,89.62
2023-04-16T02:50:10.442Z,89.82
2023-04-16T02:52:38.826Z,89.60
2023-04-16T02:55:09.179Z,89.57
2023-04-16T02:57:37.854Z,89.83
2023-04-16T03:00:09.225Z,89.67
2023-04-16T03:02:37.886Z,90.09
2023-04-16T03:05:07.707Z,89.84
2023-04-16T03:07:38.558Z,89.76
2023-04-16T03:10:09.352Z,89.76
2023-04-16T03:12:38.667Z,89.95
2023-04-16T03:15:08.960Z,89.97
2023-04-16T03:17:37.310Z,90.35
2023-04-16T03:20:09.615Z,90.14
2023-04-16T03:22:40.534Z,90.03
2023-04-16T03:25:09.732Z,90.17
2023-04-16T03:27:39.097Z,90.11
2023-04-16T03:30:10.378Z,89.88
2023-04-16T03:32:39.116Z,89.88
2023-04-16T03:35:09.091Z,89.74
2023-04-16T03:37:37.376Z,89.89
2023-04-16T03:40:07.780Z,89.97
2023-04-16T03:42:36.263Z,89.90
2023-04-16T03:45:05.774Z,89.74
2023-04-16T03:47:34.130Z,89.72
2023-04-16T03:50:02.599Z,89.60
2023-04-16T03:52:30.945Z,89.74
2023-04-16T03:55:01.091Z,90.78
2023-04-16T03:57:29.329Z,90.55
2023-04-16T03:59:57.700Z,90.34
2023-04-16T04:02:26.585Z,90.16
2023-04-16T04:04:55.600Z,90.03
2023-04-16T04:07:24.009Z,89.97
2023-04-16T04:09:52.679Z,90.01
2023-04-16T04:12:23.789Z,90.23
2023-04-16T04:14:52.326Z,90.05
2023-04-16T04:17:20.668Z,89.93
2023-04-16T04:20:00.512Z,90.03
2023-04-16T04:22:30.193Z,89.85
2023-04-16T04:24:58.558Z,89.85
2023-04-16T04:27:26.933Z,89.93
2023-04-16T04:29:56.232Z,90.71
2023-04-16T04:32:24.797Z,90.34
2023-04-16T04:34:53.167Z,89.94
2023-04-16T04:37:21.932Z,89.95
2023-04-16T04:39:52.328Z,89.90
2023-04-16T04:42:21.379Z,90.40
2023-04-16T04:44:49.795Z,90.08
2023-04-16T04:47:18.143Z,90.20
2023-04-16T04:49:46.443Z,90.19
2023-04-16T04:52:15.299Z,90.26
2023-04-16T04:54:43.891Z,90.23
2023-04-16T04:57:12.152Z,90.00
2023-04-16T04:59:40.554Z,89.86
2023-04-16T05:02:08.998Z,89.98
2023-04-16T05:04:37.414Z,89.95
2023-04-16T05:07:06.042Z,90.00
2023-04-16T05:09:34.365Z,89.83
2023-04-16T05:12:02.938Z,90.07
2023-04-16T05:14:31.566Z,89.93
2023-04-16T05:17:00.539Z,89.78
2023-04-16T05:19:28.861Z,89.71
2023-04-16T05:21:57.196Z,89.76
2023-04-16T05:24:25.550Z,89.74
2023-04-16T05:26:53.863Z,89.72
2023-04-16T05:29:22.228Z,89.63
2023-04-16T05:31:50.522Z,89.64
2023-04-16T05:34:18.857Z,89.84
2023-04-16T05:36:47.071Z,89.62
2023-04-16T05:39:17.989Z,89.50
2023-04-16T05:41:46.287Z,89.59
2023-04-16T05:44:15.359Z,89.39
2023-04-16T05:46:43.595Z,89.25
2023-04-16T05:49:12.138Z,88.79
2023-04-16T05:51:40.601Z,88.15
2023-04-16T05:54:08.941Z,87.70
2023-04-16T05:56:37.390Z,87.59
2023-04-16T05:59:05.797Z,87.71
2023-04-16T06:01:34.481Z,87.68
2023-04-16T06:04:03.182Z,87.68
2023-04-16T06:06:31.649Z,87.61
2023-04-16T06:09:00.339Z,87.54
2023-04-16T06:11:30.009Z,87.58
2023-04-16T06:13:58.278Z,87.42
2023-04-16T06:16:26.626Z,87.36
2023-04-16T06:18:55.485Z,87.23
2023-04-16T06:21:23.894Z,87.16
2023-04-16T06:23:52.277Z,87.19
2023-04-16T06:26:20.599Z,87.12
2023-04-16T06:28:49.623Z,86.96
2023-04-16T06:31:17.975Z,86.88
2023-04-16T06:33:46.213Z,86.89
2023-04-16T06:36:14.446Z,86.50
2023-04-16T06:38:43.074Z,86.35
2023-04-16T06:41:11.413Z,86.58
2023-04-16T06:43:39.759Z,86.57
2023-04-16T06:46:08.306Z,86.69
2023-04-16T06:48:36.584Z,86.70
2023-04-16T06:51:05.058Z,86.77
2023-04-16T06:53:33.371Z,86.75
2023-04-16T06:56:01.650Z,86.56
2023-04-16T06:58:29.993Z,86.18
2023-04-16T07:00:58.438Z,86.19
2023-04-16T07:03:26.996Z,85.81
2023-04-16T07:05:56.162Z,85.73
2023-04-16T07:08:24.571Z,85.68
2023-04-16T07:10:53.214Z,85.92
2023-04-16T07:13:21.642Z,85.60
2023-04-16T07:15:49.975Z,85.60
2023-04-16T07:18:20.276Z,85.62
2023-04-16T07:20:49.083Z,85.47
2023-04-16T07:23:17.501Z,85.01
2023-04-16T07:25:46.058Z,85.01
2023-04-16T07:28:16.074Z,85.12
2023-04-16T07:30:44.343Z,85.46
2023-04-16T07:33:12.633Z,85.38
2023-04-16T07:35:40.983Z,84.90
2023-04-16T07:38:09.681Z,84.90
2023-04-16T07:40:38.145Z,85.00
2023-04-16T07:43:06.530Z,84.93
2023-04-16T07:45:35.161Z,84.68
2023-04-16T07:48:04.583Z,84.27
2023-04-16T07:50:32.848Z,84.06
2023-04-16T07:53:01.736Z,84.25
2023-04-16T07:55:30.094Z,84.09
2023-04-16T07:57:58.424Z,84.02
2023-04-16T08:00:26.895Z,83.59
2023-04-16T08:02:55.397Z,83.48
2023-04-16T08:05:24.036Z,83.67
2023-04-16T08:07:52.409Z,83.64
2023-04-16T08:10:20.693Z,83.24
2023-04-16T08:12:49.235Z,83.21
2023-04-16T08:15:17.624Z,82.65
2023-04-16T08:17:46.046Z,82.49
2023-04-16T08:20:17.619Z,82.53
2023-04-16T08:22:49.212Z,82.38
2023-04-16T08:25:17.756Z,82.55
2023-04-16T08:27:45.999Z,82.85
2023-04-16T08:30:15.813Z,82.64
2023-04-16T08:32:44.382Z,82.55
2023-04-16T08:35:12.762Z,82.39
2023-04-16T08:37:41.373Z,82.26
2023-04-16T08:40:11.366Z,81.74
2023-04-16T08:42:44.036Z,81.73
2023-04-16T08:45:16.799Z,81.74
2023-04-16T08:47:46.956Z,81.54
2023-04-16T08:50:16.817Z,81.63
2023-04-16T08:52:49.738Z,81.63
2023-04-16T08:55:19.796Z,81.50
2023-04-16T08:57:50.798Z,81.66
2023-04-16T09:00:20.366Z,80.91
2023-04-16T09:02:49.701Z,80.84
2023-04-16T09:05:20.801Z,80.40
2023-04-16T09:07:49.272Z,80.46
2023-04-16T09:10:17.973Z,80.50
2023-04-16T09:12:46.918Z,79.76
2023-04-16T09:15:17.578Z,79.24
2023-04-16T09:17:46.024Z,79.16
2023-04-16T09:20:15.898Z,78.75
2023-04-16T09:22:44.330Z,78.99
2023-04-16T09:25:12.925Z,79.17
2023-04-16T09:27:41.691Z,79.11
2023-04-16T09:30:26.645Z,78.79
2023-04-16T09:33:13.343Z,78.04
2023-04-16T09:35:47.161Z,78.11
2023-04-16T09:38:16.330Z,77.86
2023-04-16T09:40:44.669Z,76.98
2023-04-16T09:43:13.978Z,76.89
2023-04-16T09:45:52.462Z,77.36
2023-04-16T09:48:30.253Z,77.14
2023-04-16T09:50:59.408Z,76.88
2023-04-16T09:53:28.892Z,76.76
2023-04-16T09:55:57.873Z,76.56
2023-04-16T09:58:26.834Z,76.66
2023-04-16T10:00:57.210Z,76.06
2023-04-16T10:03:31.347Z,75.79
2023-04-16T10:06:02.266Z,75.41
2023-04-16T10:08:30.588Z,75.51
2023-04-16T10:10:59.315Z,75.29
2023-04-16T10:13:27.651Z,75.10
2023-04-16T10:15:57.362Z,75.29
2023-04-16T10:18:26.819Z,75.12
2023-04-16T10:20:55.742Z,75.05
2023-04-16T10:23:23.978Z,74.46
2023-04-16T10:25:55.175Z,74.39
2023-04-16T10:28:25.437Z,74.22
2023-04-16T10:30:54.332Z,73.99
2023-04-16T10:33:23.923Z,73.53
2023-04-16T10:36:07.326Z,73.44
2023-04-16T10:38:38.839Z,73.66
2023-04-16T10:41:08.417Z,74.16
2023-04-16T10:43:41.423Z,74.28
2023-04-16T10:46:23.522Z,74.21
2023-04-16T10:48:54.498Z,74.18
2023-04-16T10:51:28.828Z,74.02
2023-04-16T10:53:58.543Z,73.54
2023-04-16T10:56:27.596Z,73.75
2023-04-16T10:58:56.062Z,73.83
2023-04-16T11:01:32.574Z,73.84
2023-04-16T11:04:02.306Z,73.76
2023-04-16T11:06:31.571Z,73.17
2023-04-16T11:08:59.929Z,72.84
2023-04-16T11:11:29.604Z,72.17
2023-04-16T11:13:57.968Z,72.19
2023-04-16T11:16:27.075Z,72.36
2023-04-16T11:19:07.951Z,71.95
2023-04-16T11:21:36.727Z,69.42
2023-04-16T11:24:05.551Z,70.09
2023-04-16T11:26:34.480Z,70.82
2023-04-16T11:29:04.352Z,71.28
2023-04-16T11:31:32.898Z,71.35
2023-04-16T11:34:03.129Z,70.25
2023-04-16T11:36:44.188Z,70.26
2023-04-16T11:39:13.113Z,69.88
2023-04-16T11:41:44.412Z,70.40
2023-04-16T11:44:20.119Z,70.42
2023-04-16T11:46:49.485Z,69.71
2023-04-16T11:49:18.551Z,70.45
2023-04-16T11:51:47.925Z,70.75
2023-04-16T11:54:24.932Z,70.02
2023-04-16T11:56:54.085Z,70.13
2023-04-16T11:59:24.025Z,69.13
2023-04-16T12:01:54.960Z,67.12
2023-04-16T12:04:24.943Z,66.29
2023-04-16T12:07:07.067Z,63.35
2023-04-16T12:09:38.676Z,58.43
2023-04-16T12:12:26.136Z,58.61
2023-04-16T12:14:56.161Z,60.67
2023-04-16T12:17:24.900Z,61.23
2023-04-16T12:19:56.794Z,59.60
2023-04-16T12:22:29.835Z,56.41
2023-04-16T12:25:00.615Z,57.96
2023-04-16T12:27:46.238Z,57.33
2023-04-16T12:30:15.834Z,52.87
2023-04-16T12:32:46.669Z,48.76
2023-04-16T12:35:30.448Z,51.51
2023-04-16T12:37:58.869Z,53.04
2023-04-16T12:40:27.260Z,51.80
2023-04-16T12:42:55.700Z,49.61
2023-04-16T12:45:24.679Z,49.60
2023-04-16T12:47:53.044Z,52.19
2023-04-16T12:50:21.469Z,52.85
2023-04-16T12:52:49.838Z,50.41
2023-04-16T12:55:18.566Z,52.34
2023-04-16T12:57:48.270Z,53.17
2023-04-16T13:00:17.760Z,52.77
2023-04-16T13:02:46.447Z,52.98
2023-04-16T13:05:17.954Z,51.74
2023-04-16T13:07:46.528Z,51.48
2023-04-16T13:10:14.779Z,52.01
2023-04-16T13:12:43.260Z,51.40
2023-04-16T13:15:12.143Z,50.13
2023-04-16T13:17:40.422Z,49.19
2023-04-16T13:20:10.733Z,49.70
2023-04-16T13:22:40.008Z,47.59
2023-04-16T13:25:10.087Z,48.64
2023-04-16T13:27:38.622Z,48.86
2023-04-16T13:30:09.162Z,48.68
2023-04-16T13:32:37.772Z,48.83
2023-04-16T13:35:07.384Z,49.97
2023-04-16T13:37:36.172Z,50.28
2023-04-16T13:40:06.209Z,50.81
2023-04-16T13:42:34.629Z,51.50
2023-04-16T13:45:03.016Z,51.43
2023-04-16T13:47:31.425Z,49.45
2023-04-16T13:49:59.902Z,48.87
2023-04-16T13:52:28.366Z,49.67
2023-04-16T13:54:57.852Z,50.13
2023-04-16T13:57:28.918Z,50.20
2023-04-16T13:59:57.523Z,50.30
2023-04-16T14:02:26.102Z,50.46
2023-04-16T14:04:54.906Z,50.74
2023-04-16T14:07:26.944Z,50.75
2023-04-16T14:09:55.811Z,50.55
2023-04-16T14:12:24.498Z,49.94
2023-04-16T14:14:55.750Z,49.53
2023-04-16T14:17:24.351Z,50.58
2023-04-16T14:19:52.868Z,51.35
2023-04-16T14:22:21.200Z,51.12
2023-04-16T14:24:49.927Z,50.01
2023-04-16T14:27:18.350Z,50.92
2023-04-16T14:29:46.658Z,51.81
2023-04-16T14:32:15.120Z,52.43
2023-04-16T14:34:43.525Z,52.46
2023-04-16T14:37:11.994Z,52.41
2023-04-16T14:39:40.629Z,49.55
2023-04-16T14:42:09.300Z,49.64
2023-04-16T14:44:38.261Z,50.27
2023-04-16T14:47:07.977Z,51.11
2023-04-16T14:49:36.344Z,52.66
2023-04-16T14:52:06.556Z,52.01
2023-04-16T14:54:35.295Z,52.02
2023-04-16T14:57:03.843Z,51.07
2023-04-16T14:59:32.191Z,50.10
2023-04-16T15:02:00.914Z,46.27
2023-04-16T15:04:30.559Z,43.82
2023-04-16T15:06:59.046Z,45.00
2023-04-16T15:09:27.564Z,43.44
2023-04-16T15:11:56.515Z,43.37
2023-04-16T15:14:24.906Z,42.48
2023-04-16T15:16:53.812Z,42.66
2023-04-16T15:19:22.629Z,42.60
2023-04-16T15:21:51.026Z,41.38
2023-04-16T15:24:19.427Z,40.92
2023-04-16T15:26:47.843Z,37.53
2023-04-16T15:29:16.122Z,36.79
2023-04-16T15:31:44.798Z,37.84
2023-04-16T15:34:13.497Z,39.21
2023-04-16T15:36:42.264Z,40.52
2023-04-16T15:39:11.445Z,40.84
2023-04-16T15:41:53.647Z,37.23
2023-04-16T15:44:29.104Z,38.23
2023-04-16T15:46:57.558Z,39.67
2023-04-16T15:49:26.118Z,39.21
2023-04-16T15:51:54.985Z,36.86
2023-04-16T15:54:24.097Z,35.97
2023-04-16T15:56:52.785Z,37.04
2023-04-16T15:59:21.370Z,38.18
2023-04-16T16:01:49.917Z,38.43
2023-04-16T16:04:18.389Z,38.30
2023-04-16T16:06:46.751Z,37.47
2023-04-16T16:09:15.194Z,37.50
2023-04-16T16:11:43.560Z,38.67
2023-04-16T16:14:13.482Z,38.95
2023-04-16T16:16:41.943Z,38.79
2023-04-16T16:19:10.727Z,38.84
2023-04-16T16:21:39.469Z,38.49
2023-04-16T16:24:08.832Z,37.61
2023-04-16T16:26:37.263Z,37.46
2023-04-16T16:29:06.794Z,37.91
2023-04-16T16:31:35.336Z,36.97
2023-04-16T16:34:03.918Z,38.21
2023-04-16T16:36:36.083Z,39.84
2023-04-16T16:39:04.779Z,41.51
2023-04-16T16:41:37.272Z,42.90
2023-04-16T16:44:06.364Z,44.55
2023-04-16T16:46:35.808Z,45.24
2023-04-16T16:49:05.434Z,46.09
2023-04-16T16:51:34.143Z,46.95
2023-04-16T16:54:02.618Z,47.82
2023-04-16T16:56:30.918Z,48.92
2023-04-16T16:59:02.573Z,49.01
2023-04-16T17:01:31.430Z,51.25
2023-04-16T17:04:00.147Z,52.28
2023-04-16T17:06:28.686Z,52.19
2023-04-16T17:08:57.027Z,53.00
2023-04-16T17:11:26.630Z,53.32
2023-04-16T17:13:55.011Z,53.42
2023-04-16T17:16:23.571Z,54.15
2023-04-16T17:18:52.195Z,54.40
2023-04-16T17:21:20.996Z,55.02
2023-04-16T17:23:49.315Z,55.71
2023-04-16T17:26:17.693Z,55.79
2023-04-16T17:28:46.248Z,57.12
2023-04-16T17:31:14.662Z,56.81
2023-04-16T17:33:43.867Z,57.40
2023-04-16T17:36:12.388Z,57.38
2023-04-16T17:38:44.977Z,57.70
2023-04-16T17:41:13.510Z,58.21
2023-04-16T17:43:42.417Z,59.11
2023-04-16T17:46:11.375Z,60.36
2023-04-16T17:48:39.975Z,60.71
2023-04-16T17:51:12.275Z,61.27
2023-04-16T17:53:41.979Z,60.71
2023-04-16T17:56:10.294Z,60.81
2023-04-16T17:58:38.560Z,60.90
2023-04-16T18:01:06.948Z,61.03
2023-04-16T18:03:36.489Z,61.19
2023-04-16T18:06:05.552Z,61.68
2023-04-16T18:08:36.210Z,61.72
2023-04-16T18:11:08.008Z,62.01
2023-04-16T18:13:36.927Z,62.13
2023-04-16T18:16:06.847Z,62.00
2023-04-16T18:18:35.681Z,62.49
2023-04-16T18:21:04.432Z,63.35
2023-04-16T18:23:32.680Z,62.84
2023-04-16T18:26:00.999Z,63.08
2023-04-16T18:28:30.051Z,63.63
2023-04-16T18:31:03.261Z,63.50
2023-04-16T18:36:03.289Z,63.84
2023-04-16T18:38:31.747Z,63.95
2023-04-16T18:41:01.738Z,64.15
2023-04-16T18:43:30.438Z,64.26
2023-04-16T18:45:58.782Z,64.65
2023-04-16T18:48:27.287Z,64.59
2023-04-16T18:50:57.449Z,65.05
2023-04-16T18:53:25.843Z,65.44
2023-04-16T18:55:54.564Z,65.84
2023-04-16T18:58:22.937Z,66.03
2023-04-16T19:00:53.671Z,67.05
2023-04-16T19:03:24.750Z,67.24
2023-04-16T19:05:53.186Z,68.15
2023-04-16T19:08:21.456Z,68.36
2023-04-16T19:10:50.246Z,68.35
2023-04-16T19:13:18.932Z,68.61
2023-04-16T19:15:47.295Z,69.29
2023-04-16T19:18:15.780Z,69.17
2023-04-16T19:20:44.130Z,69.16
2023-04-16T19:23:13.314Z,69.33
2023-04-16T19:25:42.286Z,69.69
2023-04-16T19:28:10.632Z,69.52
2023-04-16T19:30:39.823Z,69.57
2023-04-16T19:33:08.308Z,69.65
2023-04-16T19:35:36.635Z,70.10
2023-04-16T19:38:05.030Z,71.02
2023-04-16T19:40:34.018Z,70.41
2023-04-16T19:43:03.147Z,70.83
2023-04-16T19:45:31.454Z,70.67
2023-04-16T19:48:00.319Z,71.18
2023-04-16T19:50:29.106Z,71.55
2023-04-16T19:52:57.410Z,71.35
2023-04-16T19:55:26.834Z,71.49
2023-04-16T19:57:55.256Z,71.93
2023-04-16T20:00:23.698Z,71.64
2023-04-16T20:02:52.222Z,72.04
2023-04-16T20:05:20.597Z,72.19
2023-04-16T20:07:50.325Z,72.38
2023-04-16T20:10:20.832Z,72.43
2023-04-16T20:12:50.202Z,72.36
2023-04-16T20:15:18.716Z,72.81
2023-04-16T20:17:47.322Z,74.79
2023-04-16T20:20:16.103Z,75.45
2023-04-16T20:22:44.409Z,74.70
2023-04-16T20:25:14.029Z,74.95
2023-04-16T20:27:42.264Z,74.97
2023-04-16T20:30:13.017Z,75.40
2023-04-16T20:32:41.488Z,75.52
2023-04-16T20:35:11.053Z,77.40
2023-04-16T20:37:41.481Z,76.16
2023-04-16T20:40:14.365Z,76.67
2023-04-16T20:42:45.514Z,76.25
2023-04-16T20:45:14.115Z,76.89
2023-04-16T20:47:43.330Z,77.20
2023-04-16T20:50:13.003Z,77.30
2023-04-16T20:52:42.066Z,77.13
2023-04-16T20:55:10.770Z,76.86
2023-04-16T20:57:39.107Z,76.46
2023-04-16T21:00:13.589Z,76.34
2023-04-16T21:02:42.157Z,76.31
2023-04-16T21:05:14.019Z,76.36
2023-04-16T21:07:42.456Z,76.18
2023-04-16T21:10:11.750Z,76.36
2023-04-16T21:12:40.109Z,76.52
2023-04-16T21:15:09.935Z,76.61
2023-04-16T21:17:38.539Z,76.53
2023-04-16T21:20:12.875Z,76.65
2023-04-16T21:22:41.256Z,76.71
2023-04-16T21:25:10.865Z,76.62
2023-04-16T21:27:39.223Z,77.04
2023-04-16T21:30:10.199Z,77.83
2023-04-16T21:32:38.920Z,78.24
2023-04-16T21:35:10.582Z,77.95
2023-04-16T21:37:38.892Z,77.81
2023-04-16T21:40:09.024Z,77.64
2023-04-16T21:42:39.339Z,77.70
2023-04-16T21:45:09.795Z,78.45
2023-04-16T21:47:38.448Z,78.02
2023-04-16T21:50:09.062Z,78.05
2023-04-16T21:52:39.780Z,78.12
2023-04-16T21:55:09.798Z,78.27
2023-04-16T21:57:38.093Z,78.12
2023-04-16T22:00:12.970Z,78.73
2023-04-16T22:02:42.083Z,78.72
2023-04-16T22:05:11.032Z,78.63
2023-04-16T22:07:39.416Z,78.54
2023-04-16T22:10:10.003Z,78.45
2023-04-16T22:12:39.007Z,79.39
2023-04-16T22:15:09.698Z,79.00
2023-04-16T22:17:38.762Z,78.82
2023-04-16T22:20:12.214Z,78.62
2023-04-16T22:22:41.169Z,78.73
2023-04-16T22:25:10.271Z,78.56
2023-04-16T22:27:38.682Z,78.98
2023-04-16T22:30:09.150Z,78.78
2023-04-16T22:32:37.741Z,78.71
2023-04-16T22:35:07.641Z,78.85
2023-04-16T22:37:36.313Z,78.87
2023-04-16T22:40:10.962Z,78.96
2023-04-16T22:42:39.307Z,79.01
2023-04-16T22:45:09.176Z,79.28
2023-04-16T22:47:37.618Z,79.14
2023-04-16T22:50:08.357Z,79.22
2023-04-16T22:52:36.805Z,79.29
2023-04-16T22:55:06.884Z,79.32
2023-04-16T22:57:35.194Z,79.19
2023-04-16T23:00:06.210Z,79.33
2023-04-16T23:02:34.597Z,79.81
2023-04-16T23:05:04.391Z,79.62
2023-04-16T23:07:32.718Z,79.47
2023-04-16T23:10:01.023Z,79.65
2023-04-16T23:12:29.243Z,79.86
2023-04-16T23:14:57.821Z,79.76
2023-04-16T23:17:26.574Z,79.79
2023-04-16T23:19:54.960Z,79.96
2023-04-16T23:22:23.378Z,79.85
2023-04-16T23:24:52.269Z,79.94
2023-04-16T23:27:20.585Z,80.56
2023-04-16T23:29:48.921Z,80.41
2023-04-16T23:32:17.341Z,80.31
2023-04-16T23:34:45.712Z,80.36
2023-04-16T23:37:14.003Z,80.68
2023-04-16T23:39:42.469Z,80.81
2023-04-16T23:42:10.825Z,80.61
2023-04-16T23:44:39.116Z,80.57
2023-04-16T23:47:07.735Z,80.76
2023-04-16T23:49:36.651Z,80.72
2023-04-16T23:52:05.482Z,80.65
2023-04-16T23:54:33.839Z,80.53
2023-04-16T23:57:02.141Z,80.53
2023-04-16T23:59:30.497Z,80.65
